SCELSCVM [VINA1]

Guest
Details From SCEL - Arturo Merino Benitez Intl
To SCVM - Vina Del Mar
Flight Number VINA1
Tags Real Commercial Decoded
Created
Modified
Stats Distance 84 nm / 156 km
Max Altitude 8,000 ft / 2,438 m
Waypoints 7
Social Downloads 22
Likes 0
Share VATSIM

Download

Looking for another format? Having issues loading an existing format? Contact us
Advertisement - Login to hide

Notes

Decoded

Route

SCEL CHE TAL PIL SABLA SAL SCVM

ID Type Via Altitude Latitude Longitude Leg Dist Tot Dist Heading (true) Name
O SCEL APT - 0 ft / 0 m -33.37608˚ -70.78671˚ - 0 nm - -
CHE NDB - 7,548 ft / 2,301 m -33.58533˚ -70.77367˚ 12 nm 12 nm 177° / 177° CHENA NDB
TAL NDB - 8,000 ft / 2,438 m -33.68306˚ -70.93278˚ 9 nm 22 nm 234° / 234° TALAGANTE NDB
PIL NDB - 8,000 ft / 2,438 m -33.67750˚ -71.22306˚ 14 nm 36 nm 271° / 271° MELIPILLA NDB
SABLA FIX - 8,000 ft / 2,438 m -33.31389˚ -71.39972˚ 23 nm 60 nm 338° / 338° -
SAL NDB - 1,832 ft / 558 m -32.98565˚ -71.53391˚ 20 nm 81 nm 341° / 341° SALINAS NDB
O SCVM APT - 0 ft / 0 m -32.95445˚ -71.48601˚ 3 nm 84 nm 52° / 52° -

Altitude Profile

Advertisement - Login to hide

SCEL

Details ICAO SCEL (SCL)
Name Arturo Merino Benitez Intl
Region Chile
Timezone America/Santiago (UTC-3.0)
Stats Elevation 1,550 ft / 472 m (AMSL)
Location -33.389775° -70.794366°
Runways 2
Magnetic Variation 1.801° E

METAR

SCEL 161500Z 16010KT 130V200 9999 FEW160 BKN200 23/09 Q1014 NOSIG

Decode

TAF

TAF SCEL 161030Z 1612/1712 VRB02KT CAVOK TX29/1619Z TN14/1710Z BECMG 1613/1615 16005KT BECMG 1615/1617 20012KT BECMG 1618/1620 SCT180 BECMG 1703/1705 16005KT

Decode

Departure Runways

ID Width Length Bearing (true) Bearing (mag) Surface Threshold Offset Overrun Length
17L 180 ft / 55 m 10,523 ft / 3,207 m 177.43° 175.63° Asphalt 0 ft / 0 m 0 ft / 0 m
17R 148 ft / 45 m 12,504 ft / 3,811 m 177.44° 175.64° Asphalt 0 ft / 0 m 0 ft / 0 m
35L 148 ft / 45 m 12,504 ft / 3,811 m 357.44° 355.64° Asphalt 0 ft / 0 m 0 ft / 0 m
35R 180 ft / 55 m 10,523 ft / 3,207 m 357.43° 355.63° Asphalt 1,800 ft / 549 m 0 ft / 0 m

SCVM

Details ICAO SCVM
Name Vina Del Mar
Region Chile
Timezone America/Santiago (UTC-3.0)
Stats Elevation 461 ft / 141 m (AMSL)
Location -32.949611° -71.478583°
Runways 1
Magnetic Variation 2.185° E

METAR

SCVM 161500Z 33007KT 9999 SCT016 BKN026 17/13 Q1016

Decode

TAF

Not found

Destination Runways

ID Width Length Bearing (true) Bearing (mag) Surface Threshold Offset Overrun Length
05 98 ft / 30 m 5,759 ft / 1,755 m 52.21° 50.03° Asphalt 0 ft / 0 m 85 ft / 26 m
23 98 ft / 30 m 5,759 ft / 1,755 m 232.20° 230.02° Asphalt 0 ft / 0 m 85 ft / 26 m

Approach Navaids

Runway Type Ident Frequency Range Bearing (true) Bearing (mag) Slope Elevation
05 Localiser IVDM 110.70 MHz 18 nm / 33 km 52.20° 50.02° - 456 ft / 139 m (AMSL)
05 Glidescope IVDM 110.70 MHz 10 nm / 19 km 52.20° 50.02° 3.20° 456 ft / 139 m (AMSL)
05 DME IVDM 110.70 MHz 18 nm / 33 km - - - 423 ft / 129 m (AMSL)

Popular Alternatives